Terminal Aerodrome Forecast
Issued by NWS Mobile, AL

Home | Current Version | Previous Version | Text Only | Print | Product List | Glossary On
Versions: 1 2 3 4 5 6 7 8 9 10 11 12 13 14 15 16 17 18 19 20 21 22 23 24 25 26
000
FTUS44 KMOB 301720
TAFPNS
TAF
KPNS 301720Z 3018/3118 35005KT P6SM VCTS SCT035CB BKN040 BKN060
      TEMPO 3019/3023 VRB25KT 2SM TSRA BKN010CB
     FM310100 21007KT P6SM SCT250
     FM311500 35002KT P6SM VCSH FEW030 SCT250=

USA.gov is the U.S. government's official web portal to all federal, state and local government web resources and services.